KBZN/BZN METAR and TAF weather

Enter ICAO airport designator
Station Type Date Time Source
KBZN METAR 2019/11/21 02:56 UTC NOAA

KBZN 210256Z 12005KT 10SM FEW020 OVC042 M01/M05 A3010 RMK AO2 SLP230 T10111050 52010


Station Type Date Time Source
KBZN Decoded METAR 2019/11/21 02:56 UTC NOAA

BOZEMAN GALLATIN FIELD, MT, United States (KBZN) 45-47N 111-09W 1361M
Nov 20, 2019 - 09:56 PM EST / 2019.11.21 0256 UTC
Wind: from the ESE (120 degrees) at 6 MPH (5 KT):0
Visibility: 10 mile(s):0
Sky conditions: overcast
Temperature: 30.0 F (-1.1 C)
Windchill: 23 F (-5 C):1
Dew Point: 23.0 F (-5.0 C)
Relative Humidity: 74%
Pressure (altimeter): 30.1 in. Hg (1019 hPa)
Pressure tendency: 0.03 inches (1.0 hPa) higher than three hours ago
ob: KBZN 210256Z 12005KT 10SM FEW020 OVC042 M01/M05 A3010 RMK AO2 SLP230 T10111050 52010
cycle: 3

Station Type Date Time Source
KBZN TAF 2019/11/20 18:22 UTC NOAA

TAF KBZN 201720Z 2018/2124 31009KT P6SM SCT025 OVC040
FM202100 33007KT P6SM VCSH SCT025 BKN045
TEMPO 2021/2023 4SM -SN BR BKN025
FM210000 VRB05KT P6SM SCT030 BKN050
FM210300 VRB05KT P6SM VCFG FEW001 SCT250
FM211800 00000KT P6SM SKC

Example: see airport list